Time;durP1;ratioP1;P1;durP2;ratioP2;P2;SDS_P1;SDS_P2;PMS_P1;PMS_P2;Temp;Humidity;BMP_temperature;BMP_pressure;BME280_temperature;BME280_humidity;BME280_pressure;Samples;Min_cycle;Max_cycle;Signal;HPM_P1;HPM_P2
2023/04/21 00:00:01;;;;;;;24.48;16.08;;;8.50;99.90;;;;;;5037910;28;20052;-57
2023/04/21 00:02:27;;;;;;;25.33;17.67;;;8.40;99.90;;;;;;5037970;28;20049;-57
2023/04/21 00:04:55;;;;;;;25.35;17.42;;;8.50;99.90;;;;;;5038128;28;20092;-58
2023/04/21 00:07:21;;;;;;;29.85;17.27;;;8.50;99.90;;;;;;5037203;28;20053;-57
2023/04/21 00:09:47;;;;;;;26.08;17.10;;;8.50;99.90;;;;;;5037666;28;20077;-57
2023/04/21 00:12:12;;;;;;;24.02;16.42;;;8.40;99.90;;;;;;5037677;28;20061;-58
2023/04/21 00:14:38;;;;;;;26.35;16.00;;;8.60;99.90;;;;;;5037469;28;20045;-57
2023/04/21 00:17:05;;;;;;;29.25;17.35;;;8.50;99.90;;;;;;5043181;28;20038;-57
2023/04/21 00:19:30;;;;;;;27.88;16.33;;;8.50;99.90;;;;;;5044572;28;20041;-57
2023/04/21 00:21:58;;;;;;;24.27;16.73;;;8.50;99.90;;;;;;5043995;28;20473;-57
2023/04/21 00:24:27;;;;;;;25.23;16.33;;;8.50;99.90;;;;;;5044103;28;20060;-57
2023/04/21 00:26:52;;;;;;;27.95;16.92;;;8.50;99.90;;;;;;5043960;28;20048;-57
2023/04/21 00:29:18;;;;;;;23.63;16.92;;;8.40;99.90;;;;;;5044181;28;20049;-57
2023/04/21 00:31:44;;;;;;;24.15;17.50;;;8.50;99.90;;;;;;5026147;28;20116;-57
2023/04/21 00:34:09;;;;;;;23.85;15.60;;;8.40;99.90;;;;;;5044087;28;20042;-57
2023/04/21 00:36:35;;;;;;;23.75;16.25;;;8.40;99.90;;;;;;5043903;28;20109;-57
2023/04/21 00:39:01;;;;;;;25.00;16.88;;;8.30;99.90;;;;;;5043950;28;20053;-57
2023/04/21 00:41:28;;;;;;;22.00;16.38;;;8.30;99.90;;;;;;5044036;28;20097;-57
2023/04/21 00:44:07;;;;;;;26.45;16.17;;;8.30;99.90;;;;;;5044094;28;20045;-57
2023/04/21 00:46:34;;;;;;;29.15;17.67;;;8.20;99.90;;;;;;5043918;28;20047;-58
2023/04/21 00:49:03;;;;;;;24.48;16.35;;;8.20;99.90;;;;;;5043348;28;20053;-58
2023/04/21 00:51:31;;;;;;;24.38;16.67;;;8.20;99.90;;;;;;5043736;28;20041;-57
2023/04/21 00:53:59;;;;;;;28.20;16.80;;;8.10;99.90;;;;;;5044044;28;20084;-57
2023/04/21 00:56:27;;;;;;;26.85;17.20;;;8.10;99.90;;;;;;5043938;28;20127;-58
2023/04/21 00:58:53;;;;;;;31.17;17.75;;;8.10;99.90;;;;;;5043600;28;20045;-57
2023/04/21 01:01:19;;;;;;;25.88;16.52;;;8.00;99.90;;;;;;5043617;28;20101;-57
2023/04/21 01:03:49;;;;;;;24.83;16.52;;;8.10;99.90;;;;;;5043581;28;20060;-57
2023/04/21 01:06:15;;;;;;;26.02;17.45;;;8.00;99.90;;;;;;5043730;28;20053;-57
2023/04/21 01:08:41;;;;;;;30.67;17.92;;;7.90;99.90;;;;;;5042991;28;20049;-57
2023/04/21 01:11:11;;;;;;;29.92;17.88;;;8.00;99.90;;;;;;5043923;28;20499;-57
2023/04/21 01:13:37;;;;;;;26.73;18.00;;;7.90;99.90;;;;;;5043906;28;20050;-57
2023/04/21 01:16:05;;;;;;;28.67;17.05;;;7.90;99.90;;;;;;5043299;28;20052;-58
2023/04/21 01:18:31;;;;;;;27.27;18.10;;;7.90;99.90;;;;;;5043554;28;20115;-57
2023/04/21 01:20:57;;;;;;;32.03;18.10;;;7.80;99.90;;;;;;5043730;28;20053;-57
2023/04/21 01:23:23;;;;;;;30.05;18.15;;;7.90;99.90;;;;;;5043664;28;20048;-57
2023/04/21 01:25:50;;;;;;;29.02;18.73;;;7.80;99.90;;;;;;5043592;28;20406;-57
2023/04/21 01:28:25;;;;;;;27.42;17.85;;;7.80;99.90;;;;;;5022392;28;20072;-57
2023/04/21 01:30:51;;;;;;;25.98;17.02;;;7.70;99.90;;;;;;5040319;28;20050;-57
2023/04/21 01:33:18;;;;;;;29.98;17.98;;;7.80;99.90;;;;;;5040439;28;20048;-57
2023/04/21 01:35:44;;;;;;;30.23;18.55;;;7.80;99.90;;;;;;5040234;28;20112;-57
2023/04/21 01:38:10;;;;;;;29.15;17.95;;;7.70;99.90;;;;;;5040161;28;20068;-58
2023/04/21 01:40:36;;;;;;;25.50;17.50;;;7.50;99.90;;;;;;5040541;28;20037;-57
2023/04/21 01:43:02;;;;;;;27.73;19.42;;;7.60;99.90;;;;;;5040042;28;20082;-58
2023/04/21 01:45:29;;;;;;;28.88;17.83;;;7.70;99.90;;;;;;5040094;28;20049;-57
2023/04/21 01:47:55;;;;;;;27.85;18.52;;;7.60;99.90;;;;;;5040057;28;20056;-57
2023/04/21 01:50:21;;;;;;;27.42;17.85;;;7.60;99.90;;;;;;5039948;28;20486;-57
2023/04/21 01:52:47;;;;;;;26.85;17.35;;;7.60;99.90;;;;;;5039755;28;20046;-57
2023/04/21 01:55:13;;;;;;;28.70;18.17;;;7.60;99.90;;;;;;5040192;28;20045;-57
2023/04/21 01:57:39;;;;;;;30.85;18.25;;;7.60;99.90;;;;;;5031050;28;20045;-57
2023/04/21 02:00:06;;;;;;;30.00;18.00;;;7.60;99.90;;;;;;5039895;28;20081;-57
2023/04/21 02:02:32;;;;;;;28.02;18.45;;;7.50;99.90;;;;;;5039928;28;20072;-57
2023/04/21 02:04:57;;;;;;;29.90;18.38;;;7.60;99.90;;;;;;5039798;28;20053;-57
2023/04/21 02:07:23;;;;;;;29.35;18.65;;;7.50;99.90;;;;;;5039648;28;20049;-57
2023/04/21 02:09:49;;;;;;;29.33;18.02;;;7.40;99.90;;;;;;5039411;28;20045;-57
2023/04/21 02:12:14;;;;;;;30.08;18.23;;;7.50;99.90;;;;;;5039693;28;20185;-57
2023/04/21 02:14:40;;;;;;;28.23;17.88;;;7.50;99.90;;;;;;5039300;28;20097;-57
2023/04/21 02:17:06;;;;;;;30.65;18.60;;;7.50;99.90;;;;;;5039504;28;20037;-57
2023/04/21 02:19:31;;;;;;;26.40;17.83;;;7.50;99.90;;;;;;5039691;28;20048;-57
2023/04/21 02:21:57;;;;;;;27.98;18.13;;;7.60;99.90;;;;;;5039595;28;20120;-56
2023/04/21 02:24:23;;;;;;;30.13;18.75;;;7.50;99.90;;;;;;5039415;28;20052;-57
2023/04/21 02:26:48;;;;;;;36.22;19.02;;;7.50;99.90;;;;;;5039339;28;20088;-57
2023/04/21 02:29:14;;;;;;;31.60;18.70;;;7.50;99.90;;;;;;5038937;28;20037;-57
2023/04/21 02:31:40;;;;;;;26.92;19.33;;;7.50;99.90;;;;;;5038790;28;20293;-57
2023/04/21 02:34:06;;;;;;;31.98;18.38;;;7.60;99.90;;;;;;5039440;28;20068;-57
2023/04/21 02:36:32;;;;;;;29.58;18.65;;;7.50;99.90;;;;;;5039345;28;20041;-57
2023/04/21 02:38:58;;;;;;;31.75;18.67;;;7.60;99.90;;;;;;5038584;28;20048;-57
2023/04/21 02:41:23;;;;;;;30.63;19.67;;;7.50;99.90;;;;;;5039162;28;20041;-57
2023/04/21 02:43:49;;;;;;;31.13;20.10;;;7.50;99.90;;;;;;5038835;28;20493;-57
2023/04/21 02:46:15;;;;;;;33.40;19.67;;;7.50;99.90;;;;;;5039131;28;20045;-57
2023/04/21 02:48:40;;;;;;;31.20;20.25;;;7.40;99.90;;;;;;5038829;28;20044;-57
2023/04/21 02:51:13;;;;;;;30.23;19.75;;;7.40;99.90;;;;;;5058861;28;20065;-57
2023/04/21 02:53:39;;;;;;;31.90;21.52;;;7.50;99.90;;;;;;5059135;28;20103;-57
2023/04/21 02:56:07;;;;;;;32.85;20.67;;;7.50;99.90;;;;;;5058656;28;20049;-57
2023/04/21 02:58:35;;;;;;;32.15;21.17;;;7.40;99.90;;;;;;5058492;28;20048;-57
2023/04/21 03:01:02;;;;;;;32.70;21.17;;;7.50;99.90;;;;;;5058682;28;20116;-57
2023/04/21 03:03:28;;;;;;;31.25;20.45;;;7.40;99.90;;;;;;5058636;28;20056;-57
2023/04/21 03:06:03;;;;;;;32.35;20.98;;;7.40;99.90;;;;;;5058315;28;20041;-56
2023/04/21 03:08:30;;;;;;;32.97;20.80;;;7.40;99.90;;;;;;5058276;28;20113;-55
2023/04/21 03:10:57;;;;;;;31.27;20.67;;;7.50;99.90;;;;;;5058646;28;20076;-57
2023/04/21 03:13:23;;;;;;;31.35;20.67;;;7.40;99.90;;;;;;5058435;28;20055;-57
2023/04/21 03:15:49;;;;;;;35.80;20.58;;;7.40;99.90;;;;;;5040311;28;20044;-56
2023/04/21 03:18:15;;;;;;;32.67;20.52;;;7.40;99.90;;;;;;5058055;28;20057;-57
2023/04/21 03:20:41;;;;;;;31.08;20.52;;;7.40;99.90;;;;;;5058263;28;20048;-56
2023/04/21 03:23:07;;;;;;;30.40;20.67;;;7.40;99.90;;;;;;5058103;28;20037;-57
2023/04/21 03:25:32;;;;;;;30.90;20.48;;;7.40;99.90;;;;;;5058218;28;20100;-57
2023/04/21 03:27:58;;;;;;;32.72;20.42;;;7.30;99.90;;;;;;5057994;28;20045;-58
2023/04/21 03:30:26;;;;;;;31.45;18.30;;;7.40;99.90;;;;;;5038058;28;20050;-57
2023/04/21 03:32:54;;;;;;;29.27;19.10;;;7.40;99.90;;;;;;5038243;28;20492;-57
2023/04/21 03:35:20;;;;;;;29.38;18.83;;;7.30;99.90;;;;;;5038001;28;20129;-56
2023/04/21 03:37:45;;;;;;;26.17;18.15;;;7.30;99.90;;;;;;5038000;28;20083;-57
2023/04/21 03:40:11;;;;;;;29.85;18.58;;;7.30;99.90;;;;;;5037896;28;20094;-57
2023/04/21 03:42:37;;;;;;;25.58;17.30;;;7.30;99.90;;;;;;5037953;28;20075;-56
2023/04/21 03:45:04;;;;;;;29.27;18.80;;;7.30;99.90;;;;;;5038355;28;20038;-57
2023/04/21 03:47:30;;;;;;;28.33;17.98;;;7.30;99.90;;;;;;5040733;28;20694;-57
2023/04/21 03:49:56;;;;;;;29.77;17.88;;;7.30;99.90;;;;;;5047753;28;20049;-57
2023/04/21 03:52:22;;;;;;;27.30;16.70;;;7.20;99.90;;;;;;5057144;28;20072;-57
2023/04/21 03:54:48;;;;;;;26.60;15.45;;;7.30;99.90;;;;;;5057649;28;20029;-57
2023/04/21 03:57:14;;;;;;;27.08;16.08;;;7.30;99.90;;;;;;5057580;28;20041;-56
2023/04/21 03:59:39;;;;;;;27.23;16.63;;;7.40;99.90;;;;;;5057747;28;20060;-57
2023/04/21 04:02:05;;;;;;;27.42;16.33;;;7.40;99.90;;;;;;5057863;28;20033;-57
2023/04/21 04:04:31;;;;;;;24.73;15.88;;;7.30;99.90;;;;;;5057625;28;20047;-57
2023/04/21 04:06:56;;;;;;;26.00;16.00;;;7.20;99.90;;;;;;5057687;28;20107;-57
2023/04/21 04:09:23;;;;;;;26.60;15.73;;;7.20;99.90;;;;;;5039202;28;20044;-57
2023/04/21 04:11:49;;;;;;;27.35;17.15;;;7.20;99.90;;;;;;5057428;28;20053;-57
2023/04/21 04:14:15;;;;;;;27.02;16.23;;;7.20;99.90;;;;;;5057423;28;20045;-56
2023/04/21 04:16:41;;;;;;;23.80;15.00;;;7.20;99.90;;;;;;5057628;28;20047;-57
2023/04/21 04:19:07;;;;;;;23.15;15.40;;;7.10;99.90;;;;;;5057649;28;20041;-57
2023/04/21 04:21:33;;;;;;;23.33;15.13;;;7.20;99.90;;;;;;5057362;28;20051;-57
2023/04/21 04:23:59;;;;;;;24.85;15.25;;;7.30;99.90;;;;;;5057666;28;20105;-57
2023/04/21 04:26:25;;;;;;;22.55;14.48;;;7.20;99.90;;;;;;5057540;28;20040;-57
2023/04/21 04:28:52;;;;;;;26.25;15.65;;;7.20;99.90;;;;;;5057219;28;20053;-57
2023/04/21 04:31:18;;;;;;;28.20;14.20;;;7.20;99.90;;;;;;5057101;28;20051;-57
2023/04/21 04:33:44;;;;;;;24.13;14.52;;;7.30;99.90;;;;;;5057418;28;20037;-57
2023/04/21 04:36:12;;;;;;;23.15;14.50;;;7.20;99.90;;;;;;5057244;28;20095;-57
2023/04/21 04:38:39;;;;;;;22.25;14.27;;;7.20;99.90;;;;;;5057072;28;20938;-57
2023/04/21 04:41:05;;;;;;;22.55;14.05;;;7.20;99.90;;;;;;5057377;28;20590;-57
2023/04/21 04:43:35;;;;;;;27.35;15.30;;;7.20;99.90;;;;;;5057330;28;20045;-57
2023/04/21 04:46:01;;;;;;;23.15;14.02;;;7.20;99.90;;;;;;5057333;28;20045;-57
2023/04/21 04:48:27;;;;;;;21.58;13.77;;;7.20;99.90;;;;;;5042892;28;20045;-57
2023/04/21 04:50:53;;;;;;;25.08;14.13;;;7.20;99.90;;;;;;5036871;28;20041;-57
2023/04/21 04:53:18;;;;;;;25.15;14.70;;;7.20;99.90;;;;;;5037574;28;20030;-57
2023/04/21 04:55:45;;;;;;;20.52;13.43;;;7.30;99.90;;;;;;5037323;28;20077;-57
2023/04/21 04:58:11;;;;;;;25.10;14.35;;;7.30;99.90;;;;;;5037451;28;20056;-57
2023/04/21 05:00:37;;;;;;;23.75;14.25;;;7.30;99.90;;;;;;5019360;28;20049;-57
2023/04/21 05:03:04;;;;;;;23.17;13.30;;;7.40;99.90;;;;;;5039999;28;20040;-57
2023/04/21 05:05:29;;;;;;;22.92;13.75;;;7.30;99.90;;;;;;5040715;28;20127;-57
2023/04/21 05:07:56;;;;;;;25.17;14.57;;;7.40;99.90;;;;;;5040875;28;20505;-57
2023/04/21 05:10:22;;;;;;;21.88;13.35;;;7.40;99.90;;;;;;5040906;28;20094;-57
2023/04/21 05:12:48;;;;;;;23.17;13.73;;;7.50;99.90;;;;;;5040776;28;20080;-57
2023/04/21 05:15:14;;;;;;;22.23;14.23;;;7.50;99.90;;;;;;5040765;28;20611;-57
2023/04/21 05:17:39;;;;;;;30.83;13.75;;;7.50;99.90;;;;;;5040873;28;20068;-56
2023/04/21 05:20:06;;;;;;;22.27;13.60;;;7.60;99.90;;;;;;5040565;28;20065;-58
2023/04/21 05:22:37;;;;;;;23.27;13.80;;;7.70;99.90;;;;;;5040003;28;20401;-57
2023/04/21 05:25:03;;;;;;;20.85;13.50;;;7.60;99.90;;;;;;5040677;28;20053;-57
2023/04/21 05:27:29;;;;;;;21.95;12.43;;;7.70;99.90;;;;;;5040297;28;20097;-57
2023/04/21 05:29:54;;;;;;;22.30;14.07;;;7.70;99.90;;;;;;5040599;28;20173;-57
2023/04/21 05:32:20;;;;;;;21.70;12.93;;;7.80;99.90;;;;;;5040245;28;20048;-57
2023/04/21 05:34:46;;;;;;;23.08;13.40;;;7.80;99.90;;;;;;5040374;28;20049;-57
2023/04/21 05:37:12;;;;;;;20.33;12.27;;;8.00;99.90;;;;;;5040397;28;20065;-57
2023/04/21 05:39:37;;;;;;;25.17;13.20;;;8.00;99.90;;;;;;5040191;28;20049;-58
2023/04/21 05:42:03;;;;;;;20.95;12.52;;;8.00;99.90;;;;;;5040308;28;20129;-57
2023/04/21 05:44:29;;;;;;;21.42;13.07;;;8.10;99.90;;;;;;5040190;28;20101;-57
2023/04/21 05:46:54;;;;;;;20.35;12.68;;;8.20;99.90;;;;;;5040073;28;20157;-57
2023/04/21 05:49:20;;;;;;;19.77;11.50;;;8.20;99.90;;;;;;5040265;28;20045;-57
2023/04/21 05:51:46;;;;;;;18.70;13.20;;;8.30;99.90;;;;;;5038377;28;20029;-57
2023/04/21 05:54:11;;;;;;;20.20;12.23;;;8.30;99.90;;;;;;5040183;28;20041;-57
2023/04/21 05:56:37;;;;;;;20.63;12.00;;;8.40;99.90;;;;;;5040088;28;20056;-57
2023/04/21 05:59:05;;;;;;;22.27;12.63;;;8.40;99.90;;;;;;5038384;28;20053;-59
2023/04/21 06:01:31;;;;;;;16.13;11.18;;;8.60;99.90;;;;;;5036239;28;20103;-56
2023/04/21 06:03:57;;;;;;;21.13;11.93;;;8.60;99.90;;;;;;5018864;28;20125;-57
2023/04/21 06:06:25;;;;;;;18.77;12.02;;;8.70;99.90;;;;;;5036626;28;20041;-57
2023/04/21 06:08:50;;;;;;;18.25;11.38;;;8.70;99.90;;;;;;5018290;28;20061;-57
2023/04/21 06:11:16;;;;;;;19.25;12.02;;;8.90;99.90;;;;;;5036202;28;20037;-58
2023/04/21 06:13:42;;;;;;;20.58;11.50;;;8.90;99.90;;;;;;5035265;28;20084;-57
2023/04/21 06:16:07;;;;;;;18.23;11.23;;;9.00;99.90;;;;;;5036262;28;20073;-57
2023/04/21 06:18:33;;;;;;;19.27;12.45;;;9.10;99.90;;;;;;5035940;28;20056;-57
2023/04/21 06:20:59;;;;;;;20.30;11.43;;;9.20;99.90;;;;;;5036128;28;20058;-56
2023/04/21 06:23:25;;;;;;;15.38;10.75;;;9.30;99.90;;;;;;5035884;28;20045;-56
2023/04/21 06:26:00;;;;;;;22.00;11.00;;;9.40;99.90;;;;;;5035932;28;20396;-57
2023/04/21 06:28:26;;;;;;;15.82;9.90;;;9.40;99.90;;;;;;5036143;28;20049;-57
2023/04/21 06:30:51;;;;;;;16.55;10.85;;;9.60;99.90;;;;;;5035612;28;20080;-57
2023/04/21 06:33:17;;;;;;;20.70;10.73;;;9.60;99.90;;;;;;5018054;28;20041;-56
2023/04/21 06:35:43;;;;;;;17.33;10.38;;;9.60;99.90;;;;;;5035243;28;20049;-56
2023/04/21 06:38:08;;;;;;;21.20;11.05;;;9.70;99.90;;;;;;5035013;28;20046;-57
2023/04/21 06:40:34;;;;;;;19.95;10.40;;;9.80;99.90;;;;;;5035930;28;20530;-57
2023/04/21 06:43:00;;;;;;;21.30;10.27;;;9.80;99.90;;;;;;5035722;28;20042;-56
2023/04/21 06:45:25;;;;;;;21.65;10.57;;;9.90;99.90;;;;;;5035732;28;20061;-57
2023/04/21 06:47:51;;;;;;;18.90;10.38;;;9.90;99.90;;;;;;5035304;28;20041;-56
2023/04/21 06:50:17;;;;;;;22.30;12.43;;;9.90;99.90;;;;;;5035624;28;20049;-57
2023/04/21 06:52:42;;;;;;;21.77;10.80;;;10.00;99.90;;;;;;5035472;28;20045;-57
2023/04/21 06:55:08;;;;;;;18.58;11.32;;;10.00;99.90;;;;;;5035348;28;20052;-57
2023/04/21 06:57:34;;;;;;;20.30;10.50;;;10.10;99.90;;;;;;5035332;28;20041;-57
2023/04/21 06:59:59;;;;;;;16.55;10.30;;;10.10;99.90;;;;;;5034884;28;20053;-57
2023/04/21 07:02:25;;;;;;;19.02;10.73;;;10.20;99.90;;;;;;5017564;28;20148;-57
2023/04/21 07:04:51;;;;;;;18.17;10.38;;;10.20;99.90;;;;;;5035423;28;20450;-56
2023/04/21 07:07:16;;;;;;;18.13;10.10;;;10.30;99.90;;;;;;5034958;28;20041;-55
2023/04/21 07:09:46;;;;;;;17.95;10.43;;;10.40;99.90;;;;;;5033958;28;20064;-57
2023/04/21 07:12:11;;;;;;;18.40;10.48;;;10.40;99.90;;;;;;5034095;28;20057;-56
2023/04/21 07:14:37;;;;;;;18.80;11.60;;;10.60;99.90;;;;;;5016830;28;20057;-57
2023/04/21 07:17:03;;;;;;;16.17;10.15;;;10.60;99.90;;;;;;5035102;28;20489;-57
2023/04/21 07:19:28;;;;;;;16.00;10.05;;;10.70;99.90;;;;;;5034734;28;20152;-55
2023/04/21 07:21:54;;;;;;;17.70;9.95;;;10.80;99.90;;;;;;5034920;28;20048;-57
2023/04/21 07:24:20;;;;;;;17.92;9.98;;;10.80;99.90;;;;;;5034170;28;20110;-57
2023/04/21 07:26:45;;;;;;;14.85;10.18;;;10.90;99.90;;;;;;5033525;28;20049;-57
2023/04/21 07:29:11;;;;;;;21.52;10.50;;;10.90;99.90;;;;;;5033735;28;20064;-57
2023/04/21 07:31:37;;;;;;;16.23;10.18;;;11.00;99.90;;;;;;5034341;28;20103;-57
2023/04/21 07:34:02;;;;;;;17.25;10.52;;;11.10;99.90;;;;;;5034255;28;20041;-57
2023/04/21 07:36:28;;;;;;;16.80;10.30;;;11.20;99.90;;;;;;5033987;28;20073;-57
2023/04/21 07:38:53;;;;;;;18.00;9.75;;;11.20;99.90;;;;;;5033613;28;20065;-57
2023/04/21 07:41:19;;;;;;;19.42;10.02;;;11.30;99.90;;;;;;5033122;28;20045;-57
2023/04/21 07:43:45;;;;;;;19.98;10.57;;;11.40;99.90;;;;;;5033951;28;20116;-57
2023/04/21 07:46:12;;;;;;;18.42;9.88;;;11.50;99.90;;;;;;5000565;28;20049;-57
2023/04/21 07:48:39;;;;;;;18.67;10.88;;;11.60;99.90;;;;;;5033903;28;20053;-57
2023/04/21 07:51:05;;;;;;;22.40;11.43;;;11.70;99.90;;;;;;5022101;28;20102;-57
2023/04/21 07:53:31;;;;;;;19.73;11.05;;;11.80;99.90;;;;;;5034685;28;20048;-57
2023/04/21 07:55:57;;;;;;;21.05;10.32;;;11.90;99.90;;;;;;5034441;28;20606;-57
2023/04/21 07:58:22;;;;;;;19.42;11.23;;;11.90;99.90;;;;;;5034424;28;20041;-57
2023/04/21 08:00:48;;;;;;;15.93;10.10;;;12.00;99.90;;;;;;5033729;28;20160;-57
2023/04/21 08:03:14;;;;;;;17.50;11.02;;;12.00;99.90;;;;;;5034414;28;20048;-57
2023/04/21 08:05:40;;;;;;;18.75;10.40;;;12.00;99.90;;;;;;5034232;28;20068;-57
2023/04/21 08:08:06;;;;;;;21.10;10.43;;;12.10;99.90;;;;;;5034004;28;20046;-57
2023/04/21 08:10:32;;;;;;;17.17;10.75;;;12.10;99.90;;;;;;5034456;28;20106;-57
2023/04/21 08:12:58;;;;;;;17.65;10.35;;;12.20;99.90;;;;;;5033608;28;20050;-56
2023/04/21 08:15:24;;;;;;;21.02;10.18;;;12.30;99.90;;;;;;5016611;28;20053;-56
2023/04/21 08:17:50;;;;;;;16.70;10.25;;;12.30;99.90;;;;;;5034588;28;20045;-57
2023/04/21 08:20:16;;;;;;;17.10;9.93;;;12.40;99.90;;;;;;5033978;28;20042;-57
2023/04/21 08:22:42;;;;;;;20.25;11.30;;;12.50;99.90;;;;;;5033193;28;20140;-57
2023/04/21 08:25:08;;;;;;;19.92;10.07;;;12.50;99.90;;;;;;5015740;28;20045;-57
2023/04/21 08:27:36;;;;;;;18.02;10.10;;;12.60;99.90;;;;;;5034123;28;20080;-57
2023/04/21 08:30:02;;;;;;;18.17;10.70;;;12.70;99.90;;;;;;5034067;28;20084;-57
2023/04/21 08:32:28;;;;;;;19.13;10.90;;;12.80;99.90;;;;;;5034337;28;20084;-57
2023/04/21 08:34:54;;;;;;;16.40;9.63;;;12.90;99.90;;;;;;5033758;28;20507;-57
2023/04/21 08:37:20;;;;;;;18.45;10.18;;;13.00;99.90;;;;;;5035677;28;20056;-57
2023/04/21 08:39:47;;;;;;;20.80;10.30;;;13.00;99.90;;;;;;5037955;28;20053;-57
2023/04/21 08:42:14;;;;;;;19.05;10.77;;;13.10;99.90;;;;;;5020025;28;20437;-57
2023/04/21 08:44:40;;;;;;;18.70;10.05;;;13.10;99.90;;;;;;5038301;28;20053;-56
2023/04/21 08:47:10;;;;;;;18.15;10.23;;;13.20;99.90;;;;;;5019863;28;20087;-58
2023/04/21 08:49:37;;;;;;;17.27;10.15;;;13.30;99.90;;;;;;5036940;28;20053;-57
2023/04/21 08:52:03;;;;;;;20.55;11.00;;;13.40;99.90;;;;;;5036653;28;20045;-57
2023/04/21 08:54:29;;;;;;;17.70;10.13;;;13.40;99.90;;;;;;5037784;28;20041;-57
2023/04/21 08:56:56;;;;;;;17.27;10.25;;;13.50;99.90;;;;;;5037967;28;20535;-57
2023/04/21 08:59:21;;;;;;;18.45;11.63;;;13.60;99.90;;;;;;5038403;28;20060;-57
2023/04/21 09:02:08;;;;;;;21.10;11.15;;;13.60;99.90;;;;;;5040441;28;20049;-56
2023/04/21 09:04:37;;;;;;;17.80;10.75;;;13.70;99.90;;;;;;5040849;28;20115;-57
2023/04/21 09:07:03;;;;;;;19.35;10.73;;;13.80;99.90;;;;;;5040865;28;20491;-57
2023/04/21 09:09:29;;;;;;;17.75;9.98;;;13.80;99.90;;;;;;5040176;28;20052;-57
2023/04/21 09:11:58;;;;;;;18.23;11.35;;;13.90;99.90;;;;;;5040664;28;20044;-56
2023/04/21 09:14:34;;;;;;;16.80;9.85;;;13.90;99.90;;;;;;5040246;28;20551;-57
2023/04/21 09:17:01;;;;;;;17.85;10.45;;;14.10;99.90;;;;;;5040522;28;20045;-56
2023/04/21 09:19:28;;;;;;;15.40;9.93;;;14.20;99.90;;;;;;5040482;28;20049;-57
2023/04/21 09:21:54;;;;;;;15.52;10.05;;;14.20;99.90;;;;;;5040438;28;20077;-57
2023/04/21 09:24:19;;;;;;;16.25;10.55;;;14.30;99.90;;;;;;5040468;28;20052;-57
2023/04/21 09:26:50;;;;;;;15.82;8.80;;;14.30;99.90;;;;;;5040465;28;20285;-57
2023/04/21 09:29:16;;;;;;;15.75;9.80;;;14.40;99.90;;;;;;5040249;28;20136;-58
2023/04/21 09:31:43;;;;;;;21.52;9.48;;;14.40;99.90;;;;;;5040264;28;20053;-57
2023/04/21 09:34:20;;;;;;;15.00;9.68;;;14.60;99.90;;;;;;5021712;28;20056;-56
2023/04/21 09:36:47;;;;;;;17.70;9.90;;;14.70;99.90;;;;;;5040162;28;20050;-57
2023/04/21 09:39:13;;;;;;;17.15;9.68;;;14.80;99.90;;;;;;5040129;28;20041;-57
2023/04/21 09:41:39;;;;;;;15.55;9.43;;;14.70;99.90;;;;;;5039984;28;20052;-57
2023/04/21 09:44:05;;;;;;;18.38;9.85;;;14.80;99.90;;;;;;5040033;28;20069;-57
2023/04/21 09:46:33;;;;;;;17.13;9.60;;;15.00;99.90;;;;;;5039712;28;20124;-57
2023/04/21 09:49:02;;;;;;;15.23;9.25;;;15.00;99.90;;;;;;5038667;28;20072;-57
2023/04/21 09:51:30;;;;;;;17.48;9.20;;;15.10;99.90;;;;;;5039698;28;20072;-57
2023/04/21 09:53:59;;;;;;;20.05;9.57;;;15.20;99.90;;;;;;5038595;28;20082;-57
2023/04/21 09:56:27;;;;;;;17.42;9.40;;;15.30;99.90;;;;;;5021867;28;20069;-57
2023/04/21 09:58:56;;;;;;;14.70;8.88;;;15.30;99.90;;;;;;5039851;28;20057;-56
2023/04/21 10:01:25;;;;;;;20.13;9.45;;;15.40;99.90;;;;;;5039299;28;20060;-57
2023/04/21 10:03:52;;;;;;;18.88;9.63;;;15.60;99.90;;;;;;5039824;28;20046;-57
2023/04/21 10:06:18;;;;;;;16.60;9.00;;;15.60;99.90;;;;;;5021778;28;20080;-57
2023/04/21 10:08:45;;;;;;;14.40;9.20;;;15.60;99.90;;;;;;5039614;28;20053;-57
2023/04/21 10:11:12;;;;;;;16.50;8.73;;;15.80;99.90;;;;;;5039618;28;20045;-57
2023/04/21 10:13:38;;;;;;;19.02;8.98;;;15.80;99.90;;;;;;5039107;28;20053;-58
2023/04/21 10:16:06;;;;;;;16.23;8.75;;;16.00;99.90;;;;;;5039367;28;20509;-57
2023/04/21 10:18:41;;;;;;;16.70;8.70;;;16.00;99.90;;;;;;5039083;28;20042;-58
2023/04/21 10:21:08;;;;;;;17.38;8.50;;;16.20;99.90;;;;;;5039340;28;20046;-57
2023/04/21 10:23:37;;;;;;;17.02;9.07;;;16.30;99.90;;;;;;5039650;28;20097;-57
2023/04/21 10:26:10;;;;;;;19.50;9.20;;;16.30;99.90;;;;;;5039410;28;20072;-57
2023/04/21 10:28:42;;;;;;;14.85;8.70;;;16.30;99.90;;;;;;5039321;28;20116;-57
2023/04/21 10:31:28;;;;;;;13.63;8.52;;;16.40;99.90;;;;;;5038950;28;20048;-57
2023/04/21 10:34:12;;;;;;;18.20;10.02;;;16.50;99.90;;;;;;5020731;28;20106;-57
2023/04/21 10:36:44;;;;;;;15.65;9.48;;;16.60;99.90;;;;;;5038985;28;20073;-57
2023/04/21 10:39:15;;;;;;;13.52;8.13;;;16.70;99.90;;;;;;5038855;28;20045;-57
2023/04/21 10:41:43;;;;;;;15.02;8.75;;;16.80;99.90;;;;;;5020831;28;20041;-57
2023/04/21 10:44:08;;;;;;;17.25;8.82;;;16.90;99.90;;;;;;5038671;28;20441;-57
2023/04/21 10:46:45;;;;;;;16.05;9.10;;;17.00;99.90;;;;;;5038038;28;20044;-56
2023/04/21 10:49:20;;;;;;;14.00;8.85;;;17.00;99.90;;;;;;5038034;28;20057;-57
2023/04/21 10:52:04;;;;;;;14.27;9.25;;;17.00;99.90;;;;;;5037984;28;20091;-56
2023/04/21 10:54:41;;;;;;;16.55;8.35;;;17.10;99.90;;;;;;5038751;28;20132;-57
2023/04/21 10:57:08;;;;;;;14.30;8.65;;;17.20;99.90;;;;;;5038727;28;20052;-57
2023/04/21 10:59:35;;;;;;;15.43;8.70;;;17.30;99.90;;;;;;5038074;28;20067;-57
2023/04/21 11:02:09;;;;;;;13.98;8.55;;;17.30;99.90;;;;;;5021019;28;20592;-57
2023/04/21 11:04:36;;;;;;;17.55;9.15;;;17.40;99.90;;;;;;5038527;28;20038;-57
2023/04/21 11:07:09;;;;;;;19.48;8.88;;;17.50;99.90;;;;;;5038463;28;20045;-56
2023/04/21 11:09:36;;;;;;;15.20;8.70;;;17.60;99.90;;;;;;5037836;28;20076;-57
2023/04/21 11:12:07;;;;;;;15.73;7.88;;;17.60;99.90;;;;;;5038109;28;20045;-57
2023/04/21 11:14:35;;;;;;;14.25;7.40;;;17.70;99.90;;;;;;5038366;28;20143;-57
2023/04/21 11:17:02;;;;;;;12.07;7.18;;;17.70;99.90;;;;;;5038397;28;20048;-57
2023/04/21 11:19:27;;;;;;;13.82;7.65;;;17.90;99.90;;;;;;5038303;28;20045;-57
2023/04/21 11:21:53;;;;;;;14.85;7.88;;;17.80;99.90;;;;;;5033831;28;20038;-58
2023/04/21 11:24:20;;;;;;;15.82;6.80;;;18.00;99.90;;;;;;5018143;28;20041;-57
2023/04/21 11:26:47;;;;;;;23.83;8.15;;;18.10;99.90;;;;;;5018273;28;20054;-57
2023/04/21 11:29:13;;;;;;;12.63;6.70;;;18.10;99.90;;;;;;5018043;28;20589;-57
2023/04/21 11:31:44;;;;;;;12.77;6.28;;;18.30;99.90;;;;;;5018360;28;20622;-57
2023/04/21 11:34:10;;;;;;;15.53;6.43;;;18.20;99.90;;;;;;5018387;28;20042;-57
2023/04/21 11:36:39;;;;;;;14.23;6.85;;;18.20;99.90;;;;;;5018554;28;20054;-57
2023/04/21 11:39:12;;;;;;;15.27;7.07;;;18.20;99.90;;;;;;5018043;28;20097;-57
2023/04/21 11:41:43;;;;;;;10.98;6.20;;;18.00;99.90;;;;;;5018266;28;20053;-57
2023/04/21 11:44:10;;;;;;;15.80;7.20;;;18.00;99.90;;;;;;5018230;28;20061;-57
2023/04/21 11:46:36;;;;;;;10.40;6.47;;;18.20;99.90;;;;;;5018056;28;20289;-58
2023/04/21 11:49:12;;;;;;;15.13;6.50;;;18.50;99.90;;;;;;5036788;28;20088;-57
2023/04/21 11:51:39;;;;;;;10.68;6.10;;;18.60;99.90;;;;;;5037831;28;20053;-57
2023/04/21 11:54:07;;;;;;;12.57;6.13;;;18.70;99.90;;;;;;5038068;28;20060;-58
2023/04/21 11:56:45;;;;;;;12.77;6.30;;;18.40;99.90;;;;;;5037880;28;20065;-58
2023/04/21 11:59:12;;;;;;;11.73;5.80;;;18.50;99.90;;;;;;5037961;28;20045;-57
2023/04/21 12:01:47;;;;;;;11.80;5.40;;;18.40;99.90;;;;;;5037855;28;20038;-57
2023/04/21 12:04:18;;;;;;;13.20;6.53;;;18.40;99.90;;;;;;5037682;28;20044;-57
2023/04/21 12:06:46;;;;;;;13.60;5.57;;;18.60;99.90;;;;;;5037677;28;20574;-57
2023/04/21 12:09:19;;;;;;;12.50;5.50;;;18.70;99.90;;;;;;5037618;28;20053;-57
2023/04/21 12:11:53;;;;;;;11.02;5.20;;;18.80;99.90;;;;;;5037248;28;20045;-57
2023/04/21 12:14:22;;;;;;;11.55;5.20;;;18.70;99.90;;;;;;5037162;28;20076;-57
2023/04/21 12:16:53;;;;;;;10.65;4.90;;;18.60;99.90;;;;;;5037414;28;20041;-57
2023/04/21 12:19:24;;;;;;;10.35;4.82;;;18.60;99.90;;;;;;5037558;28;20091;-57
2023/04/21 12:21:55;;;;;;;12.87;5.00;;;18.70;99.90;;;;;;5037709;28;20049;-57
2023/04/21 12:24:21;;;;;;;12.10;4.95;;;18.70;99.90;;;;;;5037529;28;20057;-57
2023/04/21 12:26:47;;;;;;;9.63;5.40;;;18.80;99.90;;;;;;5037432;28;20046;-57
2023/04/21 12:29:13;;;;;;;11.65;6.18;;;19.00;99.90;;;;;;5036986;28;20057;-57
2023/04/21 12:31:38;;;;;;;15.05;6.00;;;19.00;99.90;;;;;;5037459;28;20042;-57
2023/04/21 12:34:04;;;;;;;11.10;4.78;;;19.10;99.90;;;;;;5037450;28;20076;-57